Garrison, Maryland
Current Conditions -  °F | °C
As of 1:54 PM on Saturday 25 Oct 2014 (Local Time) from KBWI Reporting Station
Few Clouds Few Clouds  
Wind Chill: 69°   Ceiling: Unl
Heat Index: 69°   Visibility: 10mi
Dew Point: 43°   Wind: 17mph
Humidity: 39%   Direction: 270°W
Pressure: 29.83"   Gusts: 28mph
Location:  39.41°N, 76.76°W
Report Text: KBWI 251754Z 27015G24KT 10SM FEW250 21/06 A2983 RMK AO2 SLP099 T02060061 10206 20078 57036
Loading
Personal Weather Stations






























Interactive Weather Map New forecast layout! Learn more

10-Day Weather Forecast

Advertisements
Track Severe Weather on mobile